Weather observations for the past three days for
Salinas, Salinas Municipal Airport
Metric (Imperial)
Date Time (pdt) Wind (kph) Vis. (km) Weather Sky Cond. Temperature (ºC) Relative Humidity Wind Chill (°C) Heat Index (°C) Pressure Precipitation (cm)
Air Dwpt 6 hour altimeter (cm) sea level (mb) 1 hr 3 hr 6 hr
Max. Min.
04 09:53 Vrbl 6 16.09 Overcast OVC045 15 8.3 64% 76.17 1016.5
04 08:53 S 11 14.48 Fair CLR 13.9 8.9 72% 76.2 1016.7
04 07:53 S 9 14.48 NULL NULL 11.7 7.8 77% 76.2 1016.7
04 06:53 SE 11 8.05 Fog/Mist CLR 8.3 6.7 90% 7 76.17 1016.5
04 05:53 S 13 14.48 A Few Clouds FEW049 8.3 6.7 90% 6 76.15 1016.0
04 04:53 SE 6 8.05 Fog/Mist FEW043 BKN050 8.9 7.2 12.8 8.9 89% 76.15 1016.0
04 03:53 SE 7 16.09 Overcast OVC050 9.4 7.2 86% 9 76.15 1016.0
04 02:53 Calm 16.09 Overcast OVC046 11.1 7.8 80% 76.15 1016.1
04 01:53 Calm 16.09 A Few Clouds FEW015 FEW075 10.6 7.2 80% 76.17 1016.3
04 00:53 W 6 4.02 A Few Clouds with Haze FEW015 11.1 8.3 83% 76.2 1016.6
03 23:53 Calm 16.09 Fair CLR 11.7 8.9 83% 76.17 1016.3
03 22:53 W 6 16.09 A Few Clouds FEW026 12.8 9.4 16.7 12.8 80% 76.17 1016.4
03 21:53 NW 6 16.09 Overcast OVC023 13.9 9.4 74% 76.17 1016.3
03 20:53 NW 9 16.09 Mostly Cloudy BKN020 13.9 9.4 74% 76.1 1015.4
03 19:53 NW 15 16.09 Partly Cloudy SCT025 14.4 9.4 72% 76.05 1014.8
03 18:53 NW 24 G 35 16.09 A Few Clouds FEW030 15.6 8.9 65% 76.02 1014.5
03 17:53 W 22 16.09 Overcast OVC050 16.7 6.1 50% 76.02 1014.3
03 16:53 NW 28 16.09 Overcast BKN047 OVC055 16.1 8.3 17.8 13.9 60% 76 1014.0
03 15:53 NW 24 16.09 Overcast BKN045 OVC060 16.7 8.3 58% 76 1014.0
03 14:53 W 26 16.09 Overcast SCT042 OVC060 17.2 7.2 52% 76.02 1014.3
03 13:53 NW 15 16.09 Overcast BKN035 OVC045 16.7 7.8 56% 76.02 1014.4
03 12:53 N 9 16.09 Overcast SCT037 OVC044 15.6 7.2 58% 76.07 1015.0
03 11:53 W 19 16.09 Overcast BKN027 BKN038 OVC047 15 8.9 67% 76.1 1015.2
03 10:53 Calm 16.09 Overcast SCT022 SCT027 OVC037 13.9 9.4 14.4 11.7 74% 76.07 1015.2 0.05
03 09:53 NW 9 16.09 Overcast OVC033 12.8 10 83% 76.07 1015.0
03 08:53 W 20 G 31 2.01 Light Rain Fog/Mist FEW008 BKN018 OVC023 12.2 10.6 90% 76.07 1014.9 0.05
03 07:53 W 11 9.66 Overcast with Haze OVC017 13.3 9.4 77% 76 1014.2
03 06:53 SW 6 14.48 Overcast OVC039 12.8 9.4 80% 75.95 1013.5
03 05:53 W 11 16.09 Overcast OVC035 12.8 8.9 77% 75.92 1013.0
03 04:53 W 9 16.09 Overcast OVC032 12.8 8.9 13.9 12.2 77% 75.9 1012.8
03 03:53 W 19 14.48 Overcast OVC027 12.2 10 87% 75.9 1012.7
03 02:53 W 17 14.48 Overcast OVC020 13.3 9.4 77% 75.9 1012.8
03 00:53 SW 13 16.09 Overcast OVC020 13.3 8.9 75% 75.95 1013.2
02 23:53 W 9 12.87 Overcast OVC019 13.3 8.9 75% 75.95 1013.4
02 22:53 W 13 14.48 Overcast OVC022 13.3 8.9 16.1 13.3 75% 75.97 1013.6
02 21:53 NW 15 14.48 Overcast OVC020 13.9 8.3 69% 75.97 1013.8
02 19:53 W 15 12.87 Overcast OVC020 13.9 9.4 74% 75.9 1012.8
02 18:53 NW 15 12.87 Overcast OVC020 14.4 8.9 70% 75.92 1012.9
02 17:53 W 19 12.87 Overcast OVC021 15.6 9.4 67% 75.92 1012.9
02 16:53 NW 19 G 31 14.48 Overcast OVC022 16.1 10 17.8 15 67% 75.92 1013.1
02 15:53 NW 22 16.09 Overcast OVC023 16.7 10 65% 75.95 1013.4
02 14:53 NW 20 16.09 A Few Clouds FEW025 17.2 10 63% 76 1014.2
02 13:53 W 19 16.09 Partly Cloudy SCT025 17.2 10 63% 76.05 1014.7
02 12:53 NW 17 16.09 Overcast OVC025 16.7 9.4 62% 76.12 1015.6
02 11:53 Vrbl 6 14.48 Overcast OVC022 15 8.9 67% 76.15 1016.2
02 10:53 W 9 12.87 Overcast OVC017 14.4 9.4 14.4 12.8 72% 76.15 1016.2
02 09:53 Vrbl 7 12.87 Overcast OVC016 13.9 9.4 74% 76.12 1015.9
02 08:53 W 9 12.87 Overcast OVC015 13.3 9.4 77% 76.12 1015.6
02 07:53 W 6 12.87 Overcast OVC014 12.8 9.4 80% 76.07 1015.1
02 06:53 W 11 11.27 Overcast OVC013 12.8 10 83% 76.07 1014.9
02 05:53 W 11 12.87 Overcast OVC014 12.8 9.4 80% 76.05 1014.7
02 04:53 W 11 12.87 Overcast OVC012 12.8 10 13.3 12.8 83% 76.02 1014.3
02 03:53 W 11 12.87 Overcast OVC013 12.8 10 83% 76 1014.1
02 02:53 W 11 12.87 Overcast OVC012 12.8 9.4 80% 76.02 1014.5
02 01:53 W 11 12.87 Overcast OVC012 12.8 10 83% 76.07 1015.1
02 00:53 W 6 11.27 Overcast OVC012 13.3 10 81% 76.1 1015.5
01 23:53 W 13 12.87 Overcast OVC012 13.3 10 81% 76.1 1015.4
01 22:53 W 11 12.87 Overcast OVC011 13.3 10 16.7 13.3 81% 76.1 1015.6
01 21:53 NW 17 12.87 Overcast OVC011 13.3 10 81% 76.1 1015.5
01 20:53 NW 17 12.87 Overcast OVC011 13.3 10.6 84% 76.07 1015.0
01 19:53 W 19 9.66 Overcast with Haze OVC012 13.9 10.6 81% 76.05 1014.7
01 18:53 NW 20 9.66 Mostly Cloudy with Haze BKN013 14.4 10.6 78% 76.02 1014.4
01 17:53 NW 20 12.87 A Few Clouds FEW015 15 10.6 75% 76.02 1014.4
01 16:53 NW 22 12.87 Fair CLR 16.7 10.6 18.3 15.6 67% 76.02 1014.4
01 15:53 W 24 12.87 Fair CLR 17.2 10.6 65% 76.05 1014.7
01 14:53 NW 22 11.27 Fair CLR 17.8 10.6 63% 76.1 1015.5
01 13:53 NW 20 11.27 Fair CLR 17.8 10.6 63% 76.12 1015.7
01 12:53 W 20 G 31 12.87 Fair CLR 17.2 10.6 65% 76.15 1016.1
01 11:53 W 15 9.66 A Few Clouds with Haze FEW017 16.7 11.1 70% 76.2 1016.7
01 10:53 Vrbl 6 8.05 Mostly Cloudy with Haze BKN015 15.6 10.6 15.6 11.1 72% 76.23 1017.1
Date Time (pdt) Wind (kph) Vis. (km) Weather Sky Cond. Air Dwpt Max. Min. Relative Humidity Wind Chill (°C) Heat Index (°C) altimeter (cm) sea level (mb) 1 hr 3 hr 6 hr
6 hour
Temperature (ºC) Pressure Precipitation (cm)